sensor_id;sensor_type;location;lat;lon;timestamp;pressure;altitude;pressure_sealevel;temperature;humidity
9335;BME280;4706;41.844;26.082;2023-04-07T00:00:00;100616.47;;;12.28;56.28
9335;BME280;4706;41.844;26.082;2023-04-07T00:02:28;100617.69;;;12.22;55.91
9335;BME280;4706;41.844;26.082;2023-04-07T00:04:54;100621.34;;;12.31;56.61
9335;BME280;4706;41.844;26.082;2023-04-07T00:07:21;100629.97;;;12.30;57.15
9335;BME280;4706;41.844;26.082;2023-04-07T00:09:47;100621.84;;;12.33;55.63
9335;BME280;4706;41.844;26.082;2023-04-07T00:12:12;100614.56;;;12.15;55.67
9335;BME280;4706;41.844;26.082;2023-04-07T00:14:38;100629.59;;;12.09;57.21
9335;BME280;4706;41.844;26.082;2023-04-07T00:17:03;100623.47;;;12.12;57.54
9335;BME280;4706;41.844;26.082;2023-04-07T00:19:29;100621.13;;;12.05;57.64
9335;BME280;4706;41.844;26.082;2023-04-07T00:21:54;100627.63;;;12.09;58.12
9335;BME280;4706;41.844;26.082;2023-04-07T00:24:20;100617.84;;;12.03;57.78
9335;BME280;4706;41.844;26.082;2023-04-07T00:26:45;100622.13;;;12.09;57.38
9335;BME280;4706;41.844;26.082;2023-04-07T00:29:11;100625.78;;;12.19;57.19
9335;BME280;4706;41.844;26.082;2023-04-07T00:31:36;100622.66;;;12.11;57.88
9335;BME280;4706;41.844;26.082;2023-04-07T00:34:02;100630.06;;;12.11;58.06
9335;BME280;4706;41.844;26.082;2023-04-07T00:36:27;100638.88;;;12.13;58.58
9335;BME280;4706;41.844;26.082;2023-04-07T00:38:53;100640.19;;;12.15;58.03
9335;BME280;4706;41.844;26.082;2023-04-07T00:41:18;100641.00;;;12.16;58.54
9335;BME280;4706;41.844;26.082;2023-04-07T00:43:44;100643.97;;;12.20;59.14
9335;BME280;4706;41.844;26.082;2023-04-07T00:46:10;100645.19;;;12.13;59.07
9335;BME280;4706;41.844;26.082;2023-04-07T00:48:36;100640.28;;;12.10;59.87
9335;BME280;4706;41.844;26.082;2023-04-07T00:51:02;100640.00;;;12.12;58.52
9335;BME280;4706;41.844;26.082;2023-04-07T00:53:28;100635.59;;;12.11;58.34
9335;BME280;4706;41.844;26.082;2023-04-07T00:55:53;100638.34;;;12.11;57.41
9335;BME280;4706;41.844;26.082;2023-04-07T00:58:19;100641.63;;;12.13;56.70
9335;BME280;4706;41.844;26.082;2023-04-07T01:01:36;100630.19;;;12.06;57.19
9335;BME280;4706;41.844;26.082;2023-04-07T01:03:45;100639.38;;;12.15;56.96
9335;BME280;4706;41.844;26.082;2023-04-07T01:06:15;100640.41;;;12.19;57.79
9335;BME280;4706;41.844;26.082;2023-04-07T01:09:22;100647.75;;;12.10;57.42
9335;BME280;4706;41.844;26.082;2023-04-07T01:12:06;100643.56;;;12.12;57.69
9335;BME280;4706;41.844;26.082;2023-04-07T01:14:39;100642.97;;;12.15;58.08
9335;BME280;4706;41.844;26.082;2023-04-07T01:17:08;100647.34;;;12.17;57.96
9335;BME280;4706;41.844;26.082;2023-04-07T01:19:57;100656.28;;;12.22;58.27
9335;BME280;4706;41.844;26.082;2023-04-07T01:22:28;100645.78;;;12.24;57.92
9335;BME280;4706;41.844;26.082;2023-04-07T01:25:12;100647.41;;;12.25;57.83
9335;BME280;4706;41.844;26.082;2023-04-07T01:30:34;100643.97;;;12.20;57.29
9335;BME280;4706;41.844;26.082;2023-04-07T01:33:03;100648.97;;;12.18;59.12
9335;BME280;4706;41.844;26.082;2023-04-07T01:35:32;100647.94;;;12.13;58.32
9335;BME280;4706;41.844;26.082;2023-04-07T01:37:59;100649.91;;;12.13;58.12
9335;BME280;4706;41.844;26.082;2023-04-07T01:40:25;100645.38;;;12.17;57.15
9335;BME280;4706;41.844;26.082;2023-04-07T01:42:52;100632.53;;;12.12;56.48
9335;BME280;4706;41.844;26.082;2023-04-07T01:45:19;100644.91;;;12.15;56.32
9335;BME280;4706;41.844;26.082;2023-04-07T01:47:45;100632.34;;;12.09;55.85
9335;BME280;4706;41.844;26.082;2023-04-07T01:50:11;100634.78;;;12.10;56.05
9335;BME280;4706;41.844;26.082;2023-04-07T01:52:38;100638.19;;;12.07;56.45
9335;BME280;4706;41.844;26.082;2023-04-07T01:55:05;100638.59;;;12.01;56.91
9335;BME280;4706;41.844;26.082;2023-04-07T01:57:31;100639.81;;;12.08;55.70
9335;BME280;4706;41.844;26.082;2023-04-07T01:59:56;100630.19;;;12.06;55.58
9335;BME280;4706;41.844;26.082;2023-04-07T02:02:22;100626.22;;;11.98;54.93
9335;BME280;4706;41.844;26.082;2023-04-07T02:04:54;100646.44;;;12.07;55.82
9335;BME280;4706;41.844;26.082;2023-04-07T02:07:51;100647.66;;;12.01;56.23
9335;BME280;4706;41.844;26.082;2023-04-07T02:10:21;100645.72;;;12.02;56.53
9335;BME280;4706;41.844;26.082;2023-04-07T02:12:48;100633.47;;;11.80;57.54
9335;BME280;4706;41.844;26.082;2023-04-07T02:15:14;100655.44;;;11.85;57.79
9335;BME280;4706;41.844;26.082;2023-04-07T02:17:51;100652.53;;;11.77;58.57
9335;BME280;4706;41.844;26.082;2023-04-07T02:20:19;100662.13;;;11.65;58.64
9335;BME280;4706;41.844;26.082;2023-04-07T02:22:45;100644.09;;;11.59;59.70
9335;BME280;4706;41.844;26.082;2023-04-07T02:25:27;100648.56;;;11.69;60.07
9335;BME280;4706;41.844;26.082;2023-04-07T02:27:54;100648.69;;;11.78;58.41
9335;BME280;4706;41.844;26.082;2023-04-07T02:30:20;100640.63;;;11.67;57.54
9335;BME280;4706;41.844;26.082;2023-04-07T02:32:45;100649.00;;;11.62;57.89
9335;BME280;4706;41.844;26.082;2023-04-07T02:35:11;100651.75;;;11.62;57.86
9335;BME280;4706;41.844;26.082;2023-04-07T02:37:39;100650.22;;;11.56;58.59
9335;BME280;4706;41.844;26.082;2023-04-07T02:40:06;100653.97;;;11.60;59.71
9335;BME280;4706;41.844;26.082;2023-04-07T02:42:31;100646.72;;;11.51;59.02
9335;BME280;4706;41.844;26.082;2023-04-07T02:44:57;100661.03;;;11.66;58.12
9335;BME280;4706;41.844;26.082;2023-04-07T02:47:23;100664.47;;;11.58;58.77
9335;BME280;4706;41.844;26.082;2023-04-07T02:49:49;100667.25;;;11.45;58.22
9335;BME280;4706;41.844;26.082;2023-04-07T02:52:15;100673.34;;;11.41;58.99
9335;BME280;4706;41.844;26.082;2023-04-07T02:54:40;100672.66;;;11.50;59.64
9335;BME280;4706;41.844;26.082;2023-04-07T02:57:06;100672.97;;;11.48;58.57
9335;BME280;4706;41.844;26.082;2023-04-07T02:59:31;100681.72;;;11.50;58.87
9335;BME280;4706;41.844;26.082;2023-04-07T03:01:57;100680.09;;;11.49;59.13
9335;BME280;4706;41.844;26.082;2023-04-07T03:04:23;100681.13;;;11.53;58.64
9335;BME280;4706;41.844;26.082;2023-04-07T03:06:48;100684.25;;;11.47;58.73
9335;BME280;4706;41.844;26.082;2023-04-07T03:09:13;100683.25;;;11.42;59.19
9335;BME280;4706;41.844;26.082;2023-04-07T03:11:39;100677.53;;;11.39;59.29
9335;BME280;4706;41.844;26.082;2023-04-07T03:14:06;100684.38;;;11.41;59.81
9335;BME280;4706;41.844;26.082;2023-04-07T03:16:32;100679.88;;;11.46;58.87
9335;BME280;4706;41.844;26.082;2023-04-07T03:18:57;100681.31;;;11.43;58.77
9335;BME280;4706;41.844;26.082;2023-04-07T03:21:23;100675.41;;;11.50;58.29
9335;BME280;4706;41.844;26.082;2023-04-07T03:23:48;100683.88;;;11.53;58.77
9335;BME280;4706;41.844;26.082;2023-04-07T03:26:14;100679.47;;;11.38;58.74
9335;BME280;4706;41.844;26.082;2023-04-07T03:28:40;100682.00;;;11.35;59.19
9335;BME280;4706;41.844;26.082;2023-04-07T03:31:05;100695.34;;;11.14;58.60
9335;BME280;4706;41.844;26.082;2023-04-07T03:33:31;100686.84;;;11.10;59.48
9335;BME280;4706;41.844;26.082;2023-04-07T03:35:56;100693.78;;;11.08;60.25
9335;BME280;4706;41.844;26.082;2023-04-07T03:38:22;100692.16;;;11.21;58.35
9335;BME280;4706;41.844;26.082;2023-04-07T03:40:47;100704.66;;;10.99;59.94
9335;BME280;4706;41.844;26.082;2023-04-07T03:43:13;100701.84;;;10.85;60.60
9335;BME280;4706;41.844;26.082;2023-04-07T03:45:40;100707.25;;;10.90;61.56
9335;BME280;4706;41.844;26.082;2023-04-07T03:48:06;100701.97;;;10.94;57.18
9335;BME280;4706;41.844;26.082;2023-04-07T03:50:40;100696.91;;;11.01;59.43
9335;BME280;4706;41.844;26.082;2023-04-07T03:53:06;100695.97;;;10.92;60.67
9335;BME280;4706;41.844;26.082;2023-04-07T03:55:32;100705.19;;;10.82;61.75
9335;BME280;4706;41.844;26.082;2023-04-07T03:57:59;100717.31;;;10.81;60.62
9335;BME280;4706;41.844;26.082;2023-04-07T04:00:24;100713.28;;;10.92;61.05
9335;BME280;4706;41.844;26.082;2023-04-07T04:02:51;100707.69;;;10.98;60.30
9335;BME280;4706;41.844;26.082;2023-04-07T04:05:17;100723.84;;;11.04;60.02
9335;BME280;4706;41.844;26.082;2023-04-07T04:07:42;100710.06;;;11.04;60.58
9335;BME280;4706;41.844;26.082;2023-04-07T04:10:08;100717.94;;;11.11;60.85
9335;BME280;4706;41.844;26.082;2023-04-07T04:12:33;100719.94;;;11.05;60.70
9335;BME280;4706;41.844;26.082;2023-04-07T04:14:59;100712.91;;;10.99;61.83
9335;BME280;4706;41.844;26.082;2023-04-07T04:17:24;100733.00;;;11.00;62.10
9335;BME280;4706;41.844;26.082;2023-04-07T04:19:51;100731.59;;;11.02;61.25
9335;BME280;4706;41.844;26.082;2023-04-07T04:22:16;100735.38;;;11.06;59.75
9335;BME280;4706;41.844;26.082;2023-04-07T04:24:42;100690.50;;;10.73;58.96
9335;BME280;4706;41.844;26.082;2023-04-07T04:27:08;100729.56;;;11.08;58.79
9335;BME280;4706;41.844;26.082;2023-04-07T04:29:33;100729.69;;;11.16;57.85
9335;BME280;4706;41.844;26.082;2023-04-07T04:31:59;100733.69;;;11.24;56.38
9335;BME280;4706;41.844;26.082;2023-04-07T04:34:24;100736.88;;;11.31;56.62
9335;BME280;4706;41.844;26.082;2023-04-07T04:36:50;100734.47;;;11.43;56.56
9335;BME280;4706;41.844;26.082;2023-04-07T04:39:16;100736.81;;;11.50;54.85
9335;BME280;4706;41.844;26.082;2023-04-07T04:41:41;100744.25;;;11.36;54.54
9335;BME280;4706;41.844;26.082;2023-04-07T04:44:07;100733.41;;;11.39;56.38
9335;BME280;4706;41.844;26.082;2023-04-07T04:46:32;100739.97;;;11.43;56.61
9335;BME280;4706;41.844;26.082;2023-04-07T04:48:57;100751.09;;;11.52;55.74
9335;BME280;4706;41.844;26.082;2023-04-07T04:51:23;100744.19;;;11.55;56.26
9335;BME280;4706;41.844;26.082;2023-04-07T04:53:49;100741.44;;;11.68;56.15
9335;BME280;4706;41.844;26.082;2023-04-07T04:56:14;100737.16;;;11.62;56.24
9335;BME280;4706;41.844;26.082;2023-04-07T04:58:40;100750.72;;;11.73;56.22
9335;BME280;4706;41.844;26.082;2023-04-07T05:01:11;100751.81;;;11.58;55.06
9335;BME280;4706;41.844;26.082;2023-04-07T05:03:36;100761.44;;;11.60;56.23
9335;BME280;4706;41.844;26.082;2023-04-07T05:06:02;100748.41;;;11.66;56.06
9335;BME280;4706;41.844;26.082;2023-04-07T05:08:27;100760.34;;;11.75;55.81
9335;BME280;4706;41.844;26.082;2023-04-07T05:10:53;100760.34;;;11.75;55.52
9335;BME280;4706;41.844;26.082;2023-04-07T05:13:19;100763.78;;;11.67;56.86
9335;BME280;4706;41.844;26.082;2023-04-07T05:15:45;100756.56;;;11.71;58.16
9335;BME280;4706;41.844;26.082;2023-04-07T05:18:10;100763.44;;;11.87;57.66
9335;BME280;4706;41.844;26.082;2023-04-07T05:20:36;100758.25;;;11.86;56.27
9335;BME280;4706;41.844;26.082;2023-04-07T05:23:02;100767.63;;;11.99;55.89
9335;BME280;4706;41.844;26.082;2023-04-07T05:25:27;100772.53;;;12.02;55.76
9335;BME280;4706;41.844;26.082;2023-04-07T05:27:53;100762.31;;;12.02;54.69
9335;BME280;4706;41.844;26.082;2023-04-07T05:30:18;100764.69;;;12.09;54.66
9335;BME280;4706;41.844;26.082;2023-04-07T05:32:44;100767.31;;;12.14;54.89
9335;BME280;4706;41.844;26.082;2023-04-07T05:35:10;100774.28;;;12.11;53.54
9335;BME280;4706;41.844;26.082;2023-04-07T05:37:35;100768.66;;;12.17;50.90
9335;BME280;4706;41.844;26.082;2023-04-07T05:40:01;100769.06;;;12.24;51.61
9335;BME280;4706;41.844;26.082;2023-04-07T05:42:27;100748.34;;;11.99;51.68
9335;BME280;4706;41.844;26.082;2023-04-07T05:44:52;100775.59;;;12.14;51.75
9335;BME280;4706;41.844;26.082;2023-04-07T05:47:18;100781.72;;;12.25;51.13
9335;BME280;4706;41.844;26.082;2023-04-07T05:49:43;100775.41;;;12.24;50.66
9335;BME280;4706;41.844;26.082;2023-04-07T05:52:12;100775.81;;;12.31;50.16
9335;BME280;4706;41.844;26.082;2023-04-07T05:54:38;100780.09;;;12.37;50.60
9335;BME280;4706;41.844;26.082;2023-04-07T05:57:06;100758.97;;;12.19;51.04
9335;BME280;4706;41.844;26.082;2023-04-07T05:59:33;100787.44;;;12.42;50.35
9335;BME280;4706;41.844;26.082;2023-04-07T06:01:59;100787.13;;;12.44;49.24
9335;BME280;4706;41.844;26.082;2023-04-07T06:04:25;100782.75;;;12.29;49.17
9335;BME280;4706;41.844;26.082;2023-04-07T06:06:51;100786.22;;;12.34;49.48
9335;BME280;4706;41.844;26.082;2023-04-07T06:09:23;100794.59;;;12.29;50.00
9335;BME280;4706;41.844;26.082;2023-04-07T06:11:49;100797.06;;;12.31;49.70
9335;BME280;4706;41.844;26.082;2023-04-07T06:14:16;100794.50;;;12.34;49.49
9335;BME280;4706;41.844;26.082;2023-04-07T06:16:42;100794.69;;;12.52;47.19
9335;BME280;4706;41.844;26.082;2023-04-07T06:19:07;100793.69;;;12.34;47.29
9335;BME280;4706;41.844;26.082;2023-04-07T06:21:33;100794.91;;;12.28;47.17
9335;BME280;4706;41.844;26.082;2023-04-07T06:23:59;100807.88;;;12.41;46.71
9335;BME280;4706;41.844;26.082;2023-04-07T06:26:24;100797.13;;;12.26;47.24
9335;BME280;4706;41.844;26.082;2023-04-07T06:28:51;100790.41;;;12.18;47.36
9335;BME280;4706;41.844;26.082;2023-04-07T06:31:16;100815.56;;;12.30;46.91
9335;BME280;4706;41.844;26.082;2023-04-07T06:33:43;100813.81;;;12.34;47.28
9335;BME280;4706;41.844;26.082;2023-04-07T06:36:09;100812.28;;;12.42;48.22
9335;BME280;4706;41.844;26.082;2023-04-07T06:38:35;100806.53;;;12.52;48.77
9335;BME280;4706;41.844;26.082;2023-04-07T06:41:00;100809.41;;;12.47;47.43
9335;BME280;4706;41.844;26.082;2023-04-07T06:43:26;100815.94;;;12.51;47.53
9335;BME280;4706;41.844;26.082;2023-04-07T06:45:51;100817.16;;;12.59;47.13
9335;BME280;4706;41.844;26.082;2023-04-07T06:48:17;100807.56;;;12.56;46.46
9335;BME280;4706;41.844;26.082;2023-04-07T06:50:47;100822.19;;;12.57;46.07
9335;BME280;4706;41.844;26.082;2023-04-07T06:53:13;100820.13;;;12.62;45.28
9335;BME280;4706;41.844;26.082;2023-04-07T06:55:39;100815.63;;;12.67;45.62
9335;BME280;4706;41.844;26.082;2023-04-07T06:58:04;100815.28;;;12.82;44.83
9335;BME280;4706;41.844;26.082;2023-04-07T07:00:30;100822.97;;;12.71;44.76
9335;BME280;4706;41.844;26.082;2023-04-07T07:02:56;100823.06;;;12.66;45.48
9335;BME280;4706;41.844;26.082;2023-04-07T07:05:22;100822.59;;;12.64;45.28
9335;BME280;4706;41.844;26.082;2023-04-07T07:07:48;100828.59;;;12.66;44.98
9335;BME280;4706;41.844;26.082;2023-04-07T07:10:13;100834.94;;;12.67;44.21
9335;BME280;4706;41.844;26.082;2023-04-07T07:12:39;100832.56;;;12.74;44.68
9335;BME280;4706;41.844;26.082;2023-04-07T07:15:05;100836.66;;;12.76;44.49
9335;BME280;4706;41.844;26.082;2023-04-07T07:17:31;100846.28;;;12.65;44.39
9335;BME280;4706;41.844;26.082;2023-04-07T07:19:57;100846.16;;;12.70;43.88
9335;BME280;4706;41.844;26.082;2023-04-07T07:22:22;100851.69;;;12.70;43.61
9335;BME280;4706;41.844;26.082;2023-04-07T07:24:48;100842.81;;;12.73;43.55
9335;BME280;4706;41.844;26.082;2023-04-07T07:27:13;100850.56;;;12.85;42.38
9335;BME280;4706;41.844;26.082;2023-04-07T07:29:39;100849.13;;;12.74;42.06
9335;BME280;4706;41.844;26.082;2023-04-07T07:32:04;100862.66;;;12.61;41.88
9335;BME280;4706;41.844;26.082;2023-04-07T07:34:30;100861.50;;;12.62;41.96
9335;BME280;4706;41.844;26.082;2023-04-07T07:36:56;100863.88;;;12.55;42.59
9335;BME280;4706;41.844;26.082;2023-04-07T07:39:21;100855.06;;;12.39;42.50
9335;BME280;4706;41.844;26.082;2023-04-07T07:41:47;100865.72;;;12.60;43.22
9335;BME280;4706;41.844;26.082;2023-04-07T07:44:12;100870.59;;;12.63;42.98
9335;BME280;4706;41.844;26.082;2023-04-07T07:46:38;100869.59;;;12.73;43.09
9335;BME280;4706;41.844;26.082;2023-04-07T07:49:03;100874.09;;;12.69;41.95
9335;BME280;4706;41.844;26.082;2023-04-07T07:51:30;100864.88;;;12.73;42.14
9335;BME280;4706;41.844;26.082;2023-04-07T07:53:55;100866.63;;;12.83;40.94
9335;BME280;4706;41.844;26.082;2023-04-07T07:56:21;100874.25;;;12.86;41.65
9335;BME280;4706;41.844;26.082;2023-04-07T07:58:46;100877.66;;;12.83;42.10
9335;BME280;4706;41.844;26.082;2023-04-07T08:01:12;100877.94;;;12.95;41.14
9335;BME280;4706;41.844;26.082;2023-04-07T08:03:37;100878.34;;;13.02;42.50
9335;BME280;4706;41.844;26.082;2023-04-07T08:06:03;100877.00;;;13.13;42.30
9335;BME280;4706;41.844;26.082;2023-04-07T08:08:29;100878.44;;;13.25;40.45
9335;BME280;4706;41.844;26.082;2023-04-07T08:10:54;100872.16;;;13.19;40.04
9335;BME280;4706;41.844;26.082;2023-04-07T08:13:20;100874.00;;;13.24;40.81
9335;BME280;4706;41.844;26.082;2023-04-07T08:15:45;100878.31;;;13.30;39.93
9335;BME280;4706;41.844;26.082;2023-04-07T08:18:11;100868.72;;;13.13;38.15
9335;BME280;4706;41.844;26.082;2023-04-07T08:20:37;100878.09;;;13.26;39.00
9335;BME280;4706;41.844;26.082;2023-04-07T08:23:02;100883.22;;;13.33;39.22
9335;BME280;4706;41.844;26.082;2023-04-07T08:25:28;100881.19;;;13.25;40.00
9335;BME280;4706;41.844;26.082;2023-04-07T08:27:54;100868.69;;;13.27;39.37
9335;BME280;4706;41.844;26.082;2023-04-07T08:30:19;100883.06;;;13.38;39.50
9335;BME280;4706;41.844;26.082;2023-04-07T08:32:48;100878.00;;;13.54;39.19
9335;BME280;4706;41.844;26.082;2023-04-07T08:35:13;100884.47;;;13.49;39.55
9335;BME280;4706;41.844;26.082;2023-04-07T08:37:39;100887.75;;;13.51;38.17
9335;BME280;4706;41.844;26.082;2023-04-07T08:40:06;100884.78;;;13.48;38.67
9335;BME280;4706;41.844;26.082;2023-04-07T08:42:33;100886.94;;;13.51;38.69
9335;BME280;4706;41.844;26.082;2023-04-07T08:45:05;100872.41;;;13.45;37.77
9335;BME280;4706;41.844;26.082;2023-04-07T08:47:33;100892.19;;;13.39;36.41
9335;BME280;4706;41.844;26.082;2023-04-07T08:50:03;100884.84;;;13.34;38.62
9335;BME280;4706;41.844;26.082;2023-04-07T08:52:43;100885.78;;;13.29;39.52
9335;BME280;4706;41.844;26.082;2023-04-07T08:55:10;100891.31;;;13.29;37.24
9335;BME280;4706;41.844;26.082;2023-04-07T08:57:36;100882.81;;;13.12;37.60
9335;BME280;4706;41.844;26.082;2023-04-07T09:00:03;100890.41;;;13.06;37.41
9335;BME280;4706;41.844;26.082;2023-04-07T09:02:32;100881.41;;;13.01;38.92
9335;BME280;4706;41.844;26.082;2023-04-07T09:04:58;100868.00;;;13.08;38.06
9335;BME280;4706;41.844;26.082;2023-04-07T09:07:23;100879.34;;;13.20;37.28
9335;BME280;4706;41.844;26.082;2023-04-07T09:09:49;100877.28;;;13.12;36.44
9335;BME280;4706;41.844;26.082;2023-04-07T09:12:15;100878.09;;;13.12;36.29
9335;BME280;4706;41.844;26.082;2023-04-07T09:14:41;100880.44;;;13.19;36.62
9335;BME280;4706;41.844;26.082;2023-04-07T09:17:06;100875.72;;;13.20;37.15
9335;BME280;4706;41.844;26.082;2023-04-07T09:19:32;100877.72;;;13.05;37.76
9335;BME280;4706;41.844;26.082;2023-04-07T09:21:57;100873.09;;;13.15;37.87
9335;BME280;4706;41.844;26.082;2023-04-07T09:24:28;100866.41;;;13.43;37.69
9335;BME280;4706;41.844;26.082;2023-04-07T09:29:39;100858.34;;;13.55;36.88
9335;BME280;4706;41.844;26.082;2023-04-07T09:32:04;100859.56;;;13.63;35.81
9335;BME280;4706;41.844;26.082;2023-04-07T09:34:37;100866.84;;;13.81;35.97
9335;BME280;4706;41.844;26.082;2023-04-07T09:37:04;100852.75;;;13.92;35.40
9335;BME280;4706;41.844;26.082;2023-04-07T09:39:30;100863.53;;;14.02;35.34
9335;BME280;4706;41.844;26.082;2023-04-07T09:41:56;100862.41;;;14.03;34.95
9335;BME280;4706;41.844;26.082;2023-04-07T09:44:23;100861.69;;;13.89;35.11
9335;BME280;4706;41.844;26.082;2023-04-07T09:46:55;100865.31;;;13.75;34.90
9335;BME280;4706;41.844;26.082;2023-04-07T09:49:23;100867.13;;;13.80;35.42
9335;BME280;4706;41.844;26.082;2023-04-07T09:52:01;100864.50;;;13.52;35.79
9335;BME280;4706;41.844;26.082;2023-04-07T09:54:33;100861.78;;;13.83;35.63
9335;BME280;4706;41.844;26.082;2023-04-07T09:57:00;100866.31;;;13.79;35.62
9335;BME280;4706;41.844;26.082;2023-04-07T09:59:28;100858.66;;;13.54;35.66
9335;BME280;4706;41.844;26.082;2023-04-07T10:01:54;100860.94;;;13.52;35.29
9335;BME280;4706;41.844;26.082;2023-04-07T10:04:21;100860.88;;;13.66;36.16
9335;BME280;4706;41.844;26.082;2023-04-07T10:06:46;100858.03;;;13.57;36.40
9335;BME280;4706;41.844;26.082;2023-04-07T10:09:13;100861.78;;;13.83;36.27
9335;BME280;4706;41.844;26.082;2023-04-07T10:11:40;100853.78;;;14.04;37.31
9335;BME280;4706;41.844;26.082;2023-04-07T10:14:08;100860.00;;;14.10;36.36
9335;BME280;4706;41.844;26.082;2023-04-07T10:16:36;100857.16;;;13.93;34.71
9335;BME280;4706;41.844;26.082;2023-04-07T10:19:03;100842.19;;;13.94;35.88
9335;BME280;4706;41.844;26.082;2023-04-07T10:21:31;100850.53;;;14.02;36.30
9335;BME280;4706;41.844;26.082;2023-04-07T10:26:46;100858.72;;;13.85;35.52
9335;BME280;4706;41.844;26.082;2023-04-07T10:29:16;100863.75;;;13.38;36.29
9335;BME280;4706;41.844;26.082;2023-04-07T10:31:44;100857.34;;;13.15;36.61
9335;BME280;4706;41.844;26.082;2023-04-07T10:34:10;100857.09;;;13.39;36.32
9335;BME280;4706;41.844;26.082;2023-04-07T10:37:09;100854.78;;;13.55;36.32
9335;BME280;4706;41.844;26.082;2023-04-07T10:39:35;100856.84;;;13.49;36.65
9335;BME280;4706;41.844;26.082;2023-04-07T10:42:02;100849.00;;;13.43;36.32
9335;BME280;4706;41.844;26.082;2023-04-07T10:47:06;100845.69;;;13.04;37.02
9335;BME280;4706;41.844;26.082;2023-04-07T10:49:33;100856.09;;;13.21;37.85
9335;BME280;4706;41.844;26.082;2023-04-07T10:54:37;100863.06;;;13.55;36.89
9335;BME280;4706;41.844;26.082;2023-04-07T10:59:32;100862.31;;;13.41;36.87
9335;BME280;4706;41.844;26.082;2023-04-07T11:04:43;100848.97;;;13.65;35.92
9335;BME280;4706;41.844;26.082;2023-04-07T11:07:10;100864.50;;;13.52;36.85
9335;BME280;4706;41.844;26.082;2023-04-07T11:09:36;100860.78;;;13.57;35.97
9335;BME280;4706;41.844;26.082;2023-04-07T11:12:02;100859.97;;;13.34;35.93
9335;BME280;4706;41.844;26.082;2023-04-07T11:14:30;100866.06;;;13.45;36.36
9335;BME280;4706;41.844;26.082;2023-04-07T11:16:56;100870.59;;;13.41;37.01
9335;BME280;4706;41.844;26.082;2023-04-07T11:19:22;100854.53;;;13.43;36.32
9335;BME280;4706;41.844;26.082;2023-04-07T11:21:48;100855.84;;;13.45;36.56
9335;BME280;4706;41.844;26.082;2023-04-07T11:24:32;100866.31;;;13.34;37.16
9335;BME280;4706;41.844;26.082;2023-04-07T11:26:58;100862.06;;;13.28;37.83
9335;BME280;4706;41.844;26.082;2023-04-07T11:29:30;100854.78;;;13.19;38.00
9335;BME280;4706;41.844;26.082;2023-04-07T11:32:01;100853.81;;;13.37;38.17
9335;BME280;4706;41.844;26.082;2023-04-07T11:34:30;100854.97;;;13.58;38.01
9335;BME280;4706;41.844;26.082;2023-04-07T11:36:56;100855.41;;;13.74;38.10
9335;BME280;4706;41.844;26.082;2023-04-07T11:39:25;100850.00;;;13.69;38.06
9335;BME280;4706;41.844;26.082;2023-04-07T11:41:57;100861.09;;;14.00;37.42
9335;BME280;4706;41.844;26.082;2023-04-07T11:44:23;100851.88;;;14.14;36.89
9335;BME280;4706;41.844;26.082;2023-04-07T11:46:55;100855.63;;;14.18;36.70
9335;BME280;4706;41.844;26.082;2023-04-07T11:49:22;100859.72;;;14.20;36.55
9335;BME280;4706;41.844;26.082;2023-04-07T11:52:05;100862.28;;;14.08;36.60
9335;BME280;4706;41.844;26.082;2023-04-07T11:54:44;100854.59;;;13.74;37.52
9335;BME280;4706;41.844;26.082;2023-04-07T11:57:23;100852.97;;;14.04;38.18
9335;BME280;4706;41.844;26.082;2023-04-07T11:59:50;100844.38;;;14.45;36.60
9335;BME280;4706;41.844;26.082;2023-04-07T12:02:33;100854.53;;;14.58;36.11
9335;BME280;4706;41.844;26.082;2023-04-07T12:05:00;100844.16;;;14.73;36.30
9335;BME280;4706;41.844;26.082;2023-04-07T12:07:25;100836.22;;;14.97;36.22
9335;BME280;4706;41.844;26.082;2023-04-07T12:09:52;100843.09;;;15.26;36.30
9335;BME280;4706;41.844;26.082;2023-04-07T12:12:26;100835.72;;;14.95;36.01
9335;BME280;4706;41.844;26.082;2023-04-07T12:14:52;100841.56;;;14.76;36.44
9335;BME280;4706;41.844;26.082;2023-04-07T12:17:22;100836.84;;;14.77;36.57
9335;BME280;4706;41.844;26.082;2023-04-07T12:19:47;100842.06;;;14.87;36.87
9335;BME280;4706;41.844;26.082;2023-04-07T12:22:13;100837.34;;;14.96;36.85
9335;BME280;4706;41.844;26.082;2023-04-07T12:24:38;100841.47;;;15.16;37.03
9335;BME280;4706;41.844;26.082;2023-04-07T12:27:04;100821.09;;;15.12;37.07
9335;BME280;4706;41.844;26.082;2023-04-07T12:29:30;100817.97;;;15.48;36.42
9335;BME280;4706;41.844;26.082;2023-04-07T12:31:55;100826.72;;;15.94;35.96
9335;BME280;4706;41.844;26.082;2023-04-07T12:34:21;100832.25;;;15.94;36.58
9335;BME280;4706;41.844;26.082;2023-04-07T12:36:47;100811.94;;;15.55;36.86
9335;BME280;4706;41.844;26.082;2023-04-07T12:39:14;100811.94;;;15.55;37.04
9335;BME280;4706;41.844;26.082;2023-04-07T12:41:39;100810.59;;;15.78;37.65
9335;BME280;4706;41.844;26.082;2023-04-07T12:44:05;100805.75;;;15.58;38.61
9335;BME280;4706;41.844;26.082;2023-04-07T12:46:31;100810.47;;;15.49;38.93
9335;BME280;4706;41.844;26.082;2023-04-07T12:48:56;100800.19;;;15.49;39.67
9335;BME280;4706;41.844;26.082;2023-04-07T12:51:22;100801.38;;;15.14;41.13
9335;BME280;4706;41.844;26.082;2023-04-07T12:53:47;100796.97;;;15.39;42.04
9335;BME280;4706;41.844;26.082;2023-04-07T12:56:13;100797.63;;;15.10;41.04
9335;BME280;4706;41.844;26.082;2023-04-07T12:58:40;100786.22;;;14.94;41.74
9335;BME280;4706;41.844;26.082;2023-04-07T13:01:05;100792.41;;;14.91;42.71
9335;BME280;4706;41.844;26.082;2023-04-07T13:03:31;100784.41;;;14.89;41.89
9335;BME280;4706;41.844;26.082;2023-04-07T13:05:56;100781.47;;;14.94;43.00
9335;BME280;4706;41.844;26.082;2023-04-07T13:08:26;100777.69;;;14.55;43.45
9335;BME280;4706;41.844;26.082;2023-04-07T13:10:52;100782.56;;;14.58;43.18
9335;BME280;4706;41.844;26.082;2023-04-07T13:13:17;100775.91;;;14.60;43.78
9335;BME280;4706;41.844;26.082;2023-04-07T13:15:43;100776.34;;;14.44;44.11
9335;BME280;4706;41.844;26.082;2023-04-07T13:18:08;100777.69;;;14.55;43.93